sensor_id;sensor_type;location;lat;lon;timestamp;temperature;humidity
15184;DHT22;7693;49.266;7.104;2023-09-30T04:32:46;12.80;99.90
15184;DHT22;7693;49.266;7.104;2023-09-30T04:35:12;12.80;99.90
15184;DHT22;7693;49.266;7.104;2023-09-30T04:37:38;12.90;99.90
15184;DHT22;7693;49.266;7.104;2023-09-30T04:40:10;12.90;99.90
15184;DHT22;7693;49.266;7.104;2023-09-30T04:42:44;13.00;99.90
15184;DHT22;7693;49.266;7.104;2023-09-30T04:45:13;13.00;99.90
15184;DHT22;7693;49.266;7.104;2023-09-30T04:47:42;13.00;99.90
15184;DHT22;7693;49.266;7.104;2023-09-30T04:50:10;13.00;99.90
15184;DHT22;7693;49.266;7.104;2023-09-30T04:52:37;13.00;99.90
15184;DHT22;7693;49.266;7.104;2023-09-30T04:55:02;13.00;99.90
15184;DHT22;7693;49.266;7.104;2023-09-30T04:57:31;12.90;99.90
15184;DHT22;7693;49.266;7.104;2023-09-30T05:17:00;12.70;99.90
15184;DHT22;7693;49.266;7.104;2023-09-30T05:19:26;13.00;99.90
15184;DHT22;7693;49.266;7.104;2023-09-30T05:21:52;12.90;99.90
15184;DHT22;7693;49.266;7.104;2023-09-30T05:24:17;12.90;99.90
15184;DHT22;7693;49.266;7.104;2023-09-30T05:26:46;12.80;99.90
15184;DHT22;7693;49.266;7.104;2023-09-30T05:29:12;12.70;99.90
15184;DHT22;7693;49.266;7.104;2023-09-30T05:31:38;12.70;99.90
15184;DHT22;7693;49.266;7.104;2023-09-30T05:34:04;12.70;99.90
15184;DHT22;7693;49.266;7.104;2023-09-30T05:36:30;12.70;99.90
15184;DHT22;7693;49.266;7.104;2023-09-30T05:38:55;12.60;99.90
15184;DHT22;7693;49.266;7.104;2023-09-30T05:41:21;12.60;99.90
15184;DHT22;7693;49.266;7.104;2023-09-30T05:43:47;12.60;99.90
15184;DHT22;7693;49.266;7.104;2023-09-30T05:46:12;12.60;99.90
15184;DHT22;7693;49.266;7.104;2023-09-30T05:48:38;12.60;99.90
15184;DHT22;7693;49.266;7.104;2023-09-30T05:51:05;12.60;99.90
15184;DHT22;7693;49.266;7.104;2023-09-30T05:53:31;12.60;99.90
15184;DHT22;7693;49.266;7.104;2023-09-30T05:55:58;12.70;99.90
15184;DHT22;7693;49.266;7.104;2023-09-30T05:58:25;12.70;99.90
15184;DHT22;7693;49.266;7.104;2023-09-30T06:00:54;12.70;99.90
15184;DHT22;7693;49.266;7.104;2023-09-30T06:03:20;12.80;99.90
15184;DHT22;7693;49.266;7.104;2023-09-30T06:05:49;12.80;99.90
15184;DHT22;7693;49.266;7.104;2023-09-30T06:08:15;12.80;99.90
15184;DHT22;7693;49.266;7.104;2023-09-30T06:10:41;12.80;99.90
15184;DHT22;7693;49.266;7.104;2023-09-30T06:13:12;12.90;99.90
15184;DHT22;7693;49.266;7.104;2023-09-30T06:15:41;12.90;99.90
15184;DHT22;7693;49.266;7.104;2023-09-30T06:18:08;13.00;99.90
15184;DHT22;7693;49.266;7.104;2023-09-30T06:20:35;13.00;99.90
15184;DHT22;7693;49.266;7.104;2023-09-30T06:23:01;13.00;99.90
15184;DHT22;7693;49.266;7.104;2023-09-30T06:25:27;13.00;99.90
15184;DHT22;7693;49.266;7.104;2023-09-30T06:27:53;13.00;99.90
15184;DHT22;7693;49.266;7.104;2023-09-30T06:30:23;13.00;99.90
15184;DHT22;7693;49.266;7.104;2023-09-30T06:32:56;13.10;99.90
15184;DHT22;7693;49.266;7.104;2023-09-30T06:35:22;13.10;99.90
15184;DHT22;7693;49.266;7.104;2023-09-30T06:37:48;13.00;99.90
15184;DHT22;7693;49.266;7.104;2023-09-30T06:40:14;13.00;99.90
15184;DHT22;7693;49.266;7.104;2023-09-30T06:42:40;13.00;99.90
15184;DHT22;7693;49.266;7.104;2023-09-30T06:45:06;13.00;99.90
15184;DHT22;7693;49.266;7.104;2023-09-30T06:47:36;13.00;99.90
15184;DHT22;7693;49.266;7.104;2023-09-30T06:50:03;13.10;99.90
15184;DHT22;7693;49.266;7.104;2023-09-30T06:52:37;13.10;99.90
15184;DHT22;7693;49.266;7.104;2023-09-30T06:55:03;13.10;99.90
15184;DHT22;7693;49.266;7.104;2023-09-30T06:57:32;13.10;99.90
15184;DHT22;7693;49.266;7.104;2023-09-30T06:59:57;13.20;99.90
15184;DHT22;7693;49.266;7.104;2023-09-30T07:02:23;13.20;99.90
15184;DHT22;7693;49.266;7.104;2023-09-30T07:04:49;13.30;99.90
15184;DHT22;7693;49.266;7.104;2023-09-30T07:07:15;13.30;99.90
15184;DHT22;7693;49.266;7.104;2023-09-30T07:09:42;13.40;99.90
15184;DHT22;7693;49.266;7.104;2023-09-30T07:12:08;13.40;99.90
15184;DHT22;7693;49.266;7.104;2023-09-30T07:14:33;13.50;99.90
15184;DHT22;7693;49.266;7.104;2023-09-30T07:16:59;13.60;99.90
15184;DHT22;7693;49.266;7.104;2023-09-30T07:19:24;13.60;99.90
15184;DHT22;7693;49.266;7.104;2023-09-30T07:21:50;13.60;99.90
15184;DHT22;7693;49.266;7.104;2023-09-30T07:24:16;13.60;99.90
15184;DHT22;7693;49.266;7.104;2023-09-30T07:26:41;13.60;99.90
15184;DHT22;7693;49.266;7.104;2023-09-30T07:29:09;13.60;99.90
15184;DHT22;7693;49.266;7.104;2023-09-30T07:31:37;13.70;99.90
15184;DHT22;7693;49.266;7.104;2023-09-30T07:34:03;13.70;99.90
15184;DHT22;7693;49.266;7.104;2023-09-30T07:36:29;13.70;99.90
15184;DHT22;7693;49.266;7.104;2023-09-30T07:38:54;13.80;99.90
15184;DHT22;7693;49.266;7.104;2023-09-30T07:41:21;13.80;99.90
15184;DHT22;7693;49.266;7.104;2023-09-30T07:43:46;13.80;99.90
15184;DHT22;7693;49.266;7.104;2023-09-30T07:46:12;13.80;99.90
15184;DHT22;7693;49.266;7.104;2023-09-30T07:48:37;13.90;99.90
15184;DHT22;7693;49.266;7.104;2023-09-30T07:51:05;14.00;99.90
15184;DHT22;7693;49.266;7.104;2023-09-30T07:53:34;14.00;99.90
15184;DHT22;7693;49.266;7.104;2023-09-30T07:56:00;14.10;99.90
15184;DHT22;7693;49.266;7.104;2023-09-30T07:58:26;14.20;99.90
15184;DHT22;7693;49.266;7.104;2023-09-30T08:00:51;14.30;99.90
15184;DHT22;7693;49.266;7.104;2023-09-30T08:03:17;14.40;99.90
15184;DHT22;7693;49.266;7.104;2023-09-30T08:05:43;14.40;99.90
15184;DHT22;7693;49.266;7.104;2023-09-30T08:08:08;14.60;99.90
15184;DHT22;7693;49.266;7.104;2023-09-30T08:10:34;14.60;99.90
15184;DHT22;7693;49.266;7.104;2023-09-30T08:13:02;14.70;99.90
15184;DHT22;7693;49.266;7.104;2023-09-30T08:15:28;14.80;99.90
15184;DHT22;7693;49.266;7.104;2023-09-30T08:17:53;14.80;99.90
15184;DHT22;7693;49.266;7.104;2023-09-30T08:20:19;14.90;99.90
15184;DHT22;7693;49.266;7.104;2023-09-30T08:22:45;14.90;99.90
15184;DHT22;7693;49.266;7.104;2023-09-30T08:25:10;15.10;99.90
15184;DHT22;7693;49.266;7.104;2023-09-30T08:27:37;15.20;99.90
15184;DHT22;7693;49.266;7.104;2023-09-30T12:19:27;19.30;99.90
15184;DHT22;7693;49.266;7.104;2023-09-30T12:21:52;19.20;99.90
15184;DHT22;7693;49.266;7.104;2023-09-30T12:24:18;19.20;99.90
15184;DHT22;7693;49.266;7.104;2023-09-30T12:26:50;19.20;99.90
15184;DHT22;7693;49.266;7.104;2023-09-30T12:29:20;19.20;99.90
15184;DHT22;7693;49.266;7.104;2023-09-30T12:31:48;19.20;99.90
15184;DHT22;7693;49.266;7.104;2023-09-30T12:34:14;19.20;99.90
15184;DHT22;7693;49.266;7.104;2023-09-30T12:36:41;19.30;99.90
15184;DHT22;7693;49.266;7.104;2023-09-30T12:39:07;19.40;99.90
15184;DHT22;7693;49.266;7.104;2023-09-30T12:41:43;19.50;99.90
15184;DHT22;7693;49.266;7.104;2023-09-30T12:44:09;19.60;99.90
15184;DHT22;7693;49.266;7.104;2023-09-30T12:46:36;19.60;99.90
15184;DHT22;7693;49.266;7.104;2023-09-30T12:49:08;19.60;99.90
15184;DHT22;7693;49.266;7.104;2023-09-30T12:51:34;19.60;99.90
15184;DHT22;7693;49.266;7.104;2023-09-30T12:54:01;19.70;99.90
15184;DHT22;7693;49.266;7.104;2023-09-30T12:56:26;19.80;99.90
15184;DHT22;7693;49.266;7.104;2023-09-30T12:58:54;20.00;99.90
15184;DHT22;7693;49.266;7.104;2023-09-30T13:01:20;20.10;99.90
15184;DHT22;7693;49.266;7.104;2023-09-30T13:03:47;20.30;99.90
15184;DHT22;7693;49.266;7.104;2023-09-30T13:06:13;20.40;99.90
15184;DHT22;7693;49.266;7.104;2023-09-30T13:08:39;20.40;99.90
15184;DHT22;7693;49.266;7.104;2023-09-30T13:11:05;20.40;99.90
15184;DHT22;7693;49.266;7.104;2023-09-30T14:43:57;21.00;99.90
15184;DHT22;7693;49.266;7.104;2023-09-30T14:46:22;21.10;99.90
15184;DHT22;7693;49.266;7.104;2023-09-30T14:48:48;21.10;99.90
15184;DHT22;7693;49.266;7.104;2023-09-30T14:51:15;21.10;99.90
15184;DHT22;7693;49.266;7.104;2023-09-30T14:53:41;21.20;99.90
15184;DHT22;7693;49.266;7.104;2023-09-30T14:56:15;21.30;99.90
15184;DHT22;7693;49.266;7.104;2023-09-30T14:58:41;21.40;99.90
15184;DHT22;7693;49.266;7.104;2023-09-30T15:01:11;21.40;99.90
15184;DHT22;7693;49.266;7.104;2023-09-30T15:03:37;21.40;99.90
15184;DHT22;7693;49.266;7.104;2023-09-30T15:06:05;21.40;99.90
15184;DHT22;7693;49.266;7.104;2023-09-30T15:08:31;21.40;99.90
15184;DHT22;7693;49.266;7.104;2023-09-30T15:11:01;21.30;99.90
15184;DHT22;7693;49.266;7.104;2023-09-30T15:13:27;21.30;99.90
15184;DHT22;7693;49.266;7.104;2023-09-30T15:15:53;21.10;99.90
15184;DHT22;7693;49.266;7.104;2023-09-30T15:18:19;21.00;99.90
15184;DHT22;7693;49.266;7.104;2023-09-30T15:20:45;20.90;99.90
15184;DHT22;7693;49.266;7.104;2023-09-30T15:23:12;20.80;99.90
15184;DHT22;7693;49.266;7.104;2023-09-30T15:25:42;20.70;99.90
15184;DHT22;7693;49.266;7.104;2023-09-30T15:28:14;20.60;99.90
15184;DHT22;7693;49.266;7.104;2023-09-30T15:30:40;20.50;99.90
15184;DHT22;7693;49.266;7.104;2023-09-30T15:33:06;20.40;99.90
15184;DHT22;7693;49.266;7.104;2023-09-30T15:35:31;20.40;99.90
15184;DHT22;7693;49.266;7.104;2023-09-30T15:37:57;20.30;99.90
15184;DHT22;7693;49.266;7.104;2023-09-30T15:40:23;20.30;99.90
15184;DHT22;7693;49.266;7.104;2023-09-30T15:42:49;20.30;99.90
15184;DHT22;7693;49.266;7.104;2023-09-30T15:45:15;20.20;99.90
15184;DHT22;7693;49.266;7.104;2023-09-30T15:47:44;20.10;99.90
15184;DHT22;7693;49.266;7.104;2023-09-30T15:50:10;20.10;99.90
15184;DHT22;7693;49.266;7.104;2023-09-30T15:52:36;20.10;99.90
15184;DHT22;7693;49.266;7.104;2023-09-30T15:55:02;20.00;99.90
15184;DHT22;7693;49.266;7.104;2023-09-30T15:57:28;20.00;99.90
15184;DHT22;7693;49.266;7.104;2023-09-30T15:59:53;19.90;99.90
15184;DHT22;7693;49.266;7.104;2023-09-30T16:02:19;19.90;99.90
15184;DHT22;7693;49.266;7.104;2023-09-30T16:04:45;19.80;99.90
15184;DHT22;7693;49.266;7.104;2023-09-30T16:07:11;19.80;99.90
15184;DHT22;7693;49.266;7.104;2023-09-30T16:09:36;19.70;99.90
15184;DHT22;7693;49.266;7.104;2023-09-30T16:12:03;19.70;99.90
15184;DHT22;7693;49.266;7.104;2023-09-30T16:14:29;19.60;99.90
15184;DHT22;7693;49.266;7.104;2023-09-30T16:16:55;19.50;99.90
15184;DHT22;7693;49.266;7.104;2023-09-30T16:19:22;19.50;99.90
15184;DHT22;7693;49.266;7.104;2023-09-30T16:21:48;19.40;99.90
15184;DHT22;7693;49.266;7.104;2023-09-30T16:24:13;19.40;99.90
15184;DHT22;7693;49.266;7.104;2023-09-30T16:26:40;19.30;99.90
15184;DHT22;7693;49.266;7.104;2023-09-30T16:29:06;19.30;99.90
15184;DHT22;7693;49.266;7.104;2023-09-30T16:31:32;19.20;99.90
15184;DHT22;7693;49.266;7.104;2023-09-30T16:34:00;19.10;99.90
15184;DHT22;7693;49.266;7.104;2023-09-30T16:36:26;19.10;99.90
15184;DHT22;7693;49.266;7.104;2023-09-30T16:38:53;19.00;99.90
15184;DHT22;7693;49.266;7.104;2023-09-30T16:41:18;18.90;99.90
15184;DHT22;7693;49.266;7.104;2023-09-30T16:43:44;18.90;99.90
15184;DHT22;7693;49.266;7.104;2023-09-30T16:46:10;18.80;99.90
15184;DHT22;7693;49.266;7.104;2023-09-30T16:48:35;18.70;99.90
15184;DHT22;7693;49.266;7.104;2023-09-30T16:51:01;18.70;99.90
15184;DHT22;7693;49.266;7.104;2023-09-30T16:53:26;18.60;99.90
15184;DHT22;7693;49.266;7.104;2023-09-30T16:55:53;18.50;99.90
15184;DHT22;7693;49.266;7.104;2023-09-30T16:58:18;18.40;99.90
15184;DHT22;7693;49.266;7.104;2023-09-30T17:00:44;18.30;99.90
15184;DHT22;7693;49.266;7.104;2023-09-30T17:03:09;18.20;99.90
15184;DHT22;7693;49.266;7.104;2023-09-30T17:05:37;18.10;99.90
15184;DHT22;7693;49.266;7.104;2023-09-30T17:08:03;18.00;99.90
15184;DHT22;7693;49.266;7.104;2023-09-30T17:10:29;17.90;99.90
15184;DHT22;7693;49.266;7.104;2023-09-30T17:12:55;17.80;99.90
15184;DHT22;7693;49.266;7.104;2023-09-30T17:15:21;17.70;99.90
15184;DHT22;7693;49.266;7.104;2023-09-30T17:17:46;17.60;99.90
15184;DHT22;7693;49.266;7.104;2023-09-30T17:20:12;17.50;99.90
15184;DHT22;7693;49.266;7.104;2023-09-30T17:22:39;17.40;99.90
15184;DHT22;7693;49.266;7.104;2023-09-30T17:25:05;17.30;99.90
15184;DHT22;7693;49.266;7.104;2023-09-30T17:27:31;17.20;99.90
15184;DHT22;7693;49.266;7.104;2023-09-30T17:29:56;17.10;99.90
15184;DHT22;7693;49.266;7.104;2023-09-30T17:32:22;17.10;99.90
15184;DHT22;7693;49.266;7.104;2023-09-30T17:34:49;17.00;99.90
15184;DHT22;7693;49.266;7.104;2023-09-30T17:37:15;16.90;99.90
15184;DHT22;7693;49.266;7.104;2023-09-30T17:39:43;16.80;99.90
15184;DHT22;7693;49.266;7.104;2023-09-30T17:42:11;16.70;99.90
15184;DHT22;7693;49.266;7.104;2023-09-30T17:44:37;16.60;99.90
15184;DHT22;7693;49.266;7.104;2023-09-30T17:47:03;16.60;99.90
15184;DHT22;7693;49.266;7.104;2023-09-30T17:49:29;16.50;99.90
15184;DHT22;7693;49.266;7.104;2023-09-30T17:51:55;16.50;99.90
15184;DHT22;7693;49.266;7.104;2023-09-30T17:54:21;16.40;99.90
15184;DHT22;7693;49.266;7.104;2023-09-30T17:56:47;16.40;99.90
15184;DHT22;7693;49.266;7.104;2023-09-30T17:59:12;16.30;99.90
15184;DHT22;7693;49.266;7.104;2023-09-30T18:01:38;16.20;99.90
15184;DHT22;7693;49.266;7.104;2023-09-30T18:04:04;16.10;99.90
15184;DHT22;7693;49.266;7.104;2023-09-30T18:06:31;16.10;99.90
15184;DHT22;7693;49.266;7.104;2023-09-30T18:08:57;16.00;99.90
15184;DHT22;7693;49.266;7.104;2023-09-30T18:11:23;16.00;99.90
15184;DHT22;7693;49.266;7.104;2023-09-30T18:13:48;16.00;99.90
15184;DHT22;7693;49.266;7.104;2023-09-30T18:16:14;15.90;99.90
15184;DHT22;7693;49.266;7.104;2023-09-30T18:18:39;15.90;99.90
15184;DHT22;7693;49.266;7.104;2023-09-30T18:21:08;15.80;99.90
15184;DHT22;7693;49.266;7.104;2023-09-30T18:23:37;15.70;99.90
15184;DHT22;7693;49.266;7.104;2023-09-30T18:26:03;15.70;99.90
15184;DHT22;7693;49.266;7.104;2023-09-30T18:28:29;15.60;99.90
15184;DHT22;7693;49.266;7.104;2023-09-30T18:30:57;15.60;99.90
15184;DHT22;7693;49.266;7.104;2023-09-30T18:33:23;15.50;99.90
15184;DHT22;7693;49.266;7.104;2023-09-30T18:35:48;15.50;99.90
15184;DHT22;7693;49.266;7.104;2023-09-30T18:38:14;15.40;99.90
15184;DHT22;7693;49.266;7.104;2023-09-30T18:40:40;15.40;99.90
15184;DHT22;7693;49.266;7.104;2023-09-30T18:43:09;15.40;99.90
15184;DHT22;7693;49.266;7.104;2023-09-30T18:45:41;15.30;99.90
15184;DHT22;7693;49.266;7.104;2023-09-30T18:48:07;15.20;99.90
15184;DHT22;7693;49.266;7.104;2023-09-30T18:50:47;15.20;99.90
15184;DHT22;7693;49.266;7.104;2023-09-30T18:53:13;15.20;99.90
15184;DHT22;7693;49.266;7.104;2023-09-30T18:55:41;15.10;99.90
15184;DHT22;7693;49.266;7.104;2023-09-30T18:58:07;15.10;99.90
15184;DHT22;7693;49.266;7.104;2023-09-30T19:00:34;15.00;99.90
15184;DHT22;7693;49.266;7.104;2023-09-30T19:03:01;15.00;99.90
15184;DHT22;7693;49.266;7.104;2023-09-30T19:05:28;15.00;99.90
15184;DHT22;7693;49.266;7.104;2023-09-30T19:07:53;14.90;99.90
15184;DHT22;7693;49.266;7.104;2023-09-30T19:10:19;14.90;99.90
15184;DHT22;7693;49.266;7.104;2023-09-30T19:12:45;14.90;99.90
15184;DHT22;7693;49.266;7.104;2023-09-30T19:15:10;14.80;99.90
15184;DHT22;7693;49.266;7.104;2023-09-30T19:17:36;14.80;99.90
15184;DHT22;7693;49.266;7.104;2023-09-30T19:20:06;14.70;99.90
15184;DHT22;7693;49.266;7.104;2023-09-30T19:22:32;14.70;99.90
15184;DHT22;7693;49.266;7.104;2023-09-30T19:24:57;14.70;99.90
15184;DHT22;7693;49.266;7.104;2023-09-30T19:27:23;14.60;99.90
15184;DHT22;7693;49.266;7.104;2023-09-30T19:29:49;14.60;99.90
15184;DHT22;7693;49.266;7.104;2023-09-30T19:32:14;14.50;99.90
15184;DHT22;7693;49.266;7.104;2023-09-30T19:34:40;14.50;99.90
15184;DHT22;7693;49.266;7.104;2023-09-30T19:37:05;14.50;99.90
15184;DHT22;7693;49.266;7.104;2023-09-30T19:39:31;14.50;99.90
15184;DHT22;7693;49.266;7.104;2023-09-30T19:41:57;14.40;99.90
15184;DHT22;7693;49.266;7.104;2023-09-30T19:44:24;14.40;99.90
15184;DHT22;7693;49.266;7.104;2023-09-30T19:46:49;14.40;99.90
15184;DHT22;7693;49.266;7.104;2023-09-30T19:49:15;14.30;99.90
15184;DHT22;7693;49.266;7.104;2023-09-30T19:51:40;14.30;99.90
15184;DHT22;7693;49.266;7.104;2023-09-30T19:54:07;14.30;99.90
15184;DHT22;7693;49.266;7.104;2023-09-30T19:56:37;14.20;99.90
15184;DHT22;7693;49.266;7.104;2023-09-30T19:59:03;14.20;99.90
15184;DHT22;7693;49.266;7.104;2023-09-30T20:01:29;14.20;99.90
15184;DHT22;7693;49.266;7.104;2023-09-30T20:03:54;14.10;99.90
15184;DHT22;7693;49.266;7.104;2023-09-30T20:06:22;14.10;99.90
15184;DHT22;7693;49.266;7.104;2023-09-30T20:08:50;14.10;99.90
15184;DHT22;7693;49.266;7.104;2023-09-30T20:11:23;14.10;99.90
15184;DHT22;7693;49.266;7.104;2023-09-30T20:13:52;14.10;99.90
15184;DHT22;7693;49.266;7.104;2023-09-30T20:16:19;14.00;99.90
15184;DHT22;7693;49.266;7.104;2023-09-30T20:18:45;14.00;99.90
15184;DHT22;7693;49.266;7.104;2023-09-30T20:21:11;14.00;99.90
15184;DHT22;7693;49.266;7.104;2023-09-30T20:23:38;13.90;99.90
15184;DHT22;7693;49.266;7.104;2023-09-30T20:26:04;13.90;99.90
15184;DHT22;7693;49.266;7.104;2023-09-30T20:28:39;13.90;99.90
15184;DHT22;7693;49.266;7.104;2023-09-30T20:31:04;13.80;99.90
15184;DHT22;7693;49.266;7.104;2023-09-30T20:33:30;13.80;99.90
15184;DHT22;7693;49.266;7.104;2023-09-30T20:35:55;13.80;99.90
15184;DHT22;7693;49.266;7.104;2023-09-30T20:38:21;13.70;99.90
15184;DHT22;7693;49.266;7.104;2023-09-30T20:40:46;13.70;99.90
15184;DHT22;7693;49.266;7.104;2023-09-30T20:43:14;13.70;99.90
15184;DHT22;7693;49.266;7.104;2023-09-30T20:45:40;13.60;99.90
15184;DHT22;7693;49.266;7.104;2023-09-30T20:48:06;13.60;99.90
15184;DHT22;7693;49.266;7.104;2023-09-30T20:50:33;13.60;99.90
15184;DHT22;7693;49.266;7.104;2023-09-30T20:52:59;13.60;99.90
15184;DHT22;7693;49.266;7.104;2023-09-30T20:55:25;13.60;99.90
15184;DHT22;7693;49.266;7.104;2023-09-30T20:57:50;13.50;99.90
15184;DHT22;7693;49.266;7.104;2023-09-30T21:00:16;13.50;99.90
15184;DHT22;7693;49.266;7.104;2023-09-30T21:02:43;13.40;99.90
15184;DHT22;7693;49.266;7.104;2023-09-30T21:05:10;13.40;99.90
15184;DHT22;7693;49.266;7.104;2023-09-30T21:07:37;13.30;99.90
15184;DHT22;7693;49.266;7.104;2023-09-30T21:10:03;13.40;99.90
15184;DHT22;7693;49.266;7.104;2023-09-30T21:12:28;13.30;99.90
15184;DHT22;7693;49.266;7.104;2023-09-30T21:14:54;13.30;99.90
15184;DHT22;7693;49.266;7.104;2023-09-30T21:17:20;13.30;99.90
15184;DHT22;7693;49.266;7.104;2023-09-30T21:19:46;13.30;99.90
15184;DHT22;7693;49.266;7.104;2023-09-30T21:22:12;13.30;99.90
15184;DHT22;7693;49.266;7.104;2023-09-30T21:24:37;13.20;99.90
15184;DHT22;7693;49.266;7.104;2023-09-30T21:27:03;13.20;99.90
15184;DHT22;7693;49.266;7.104;2023-09-30T21:29:29;13.20;99.90
15184;DHT22;7693;49.266;7.104;2023-09-30T21:31:55;13.10;99.90
15184;DHT22;7693;49.266;7.104;2023-09-30T21:34:21;13.10;99.90
15184;DHT22;7693;49.266;7.104;2023-09-30T21:36:47;13.10;99.90
15184;DHT22;7693;49.266;7.104;2023-09-30T21:39:14;13.00;99.90
15184;DHT22;7693;49.266;7.104;2023-09-30T21:41:41;13.00;99.90
15184;DHT22;7693;49.266;7.104;2023-09-30T21:44:06;13.00;99.90
15184;DHT22;7693;49.266;7.104;2023-09-30T21:46:32;13.00;99.90
15184;DHT22;7693;49.266;7.104;2023-09-30T21:48:59;13.00;99.90
15184;DHT22;7693;49.266;7.104;2023-09-30T21:51:24;12.90;99.90
15184;DHT22;7693;49.266;7.104;2023-09-30T21:53:50;12.90;99.90
15184;DHT22;7693;49.266;7.104;2023-09-30T21:56:16;12.90;99.90
15184;DHT22;7693;49.266;7.104;2023-09-30T21:58:41;12.90;99.90
15184;DHT22;7693;49.266;7.104;2023-09-30T22:01:07;12.90;99.90
15184;DHT22;7693;49.266;7.104;2023-09-30T22:03:35;12.80;99.90
15184;DHT22;7693;49.266;7.104;2023-09-30T22:06:00;12.80;99.90
15184;DHT22;7693;49.266;7.104;2023-09-30T22:08:26;12.80;99.90
15184;DHT22;7693;49.266;7.104;2023-09-30T22:10:53;12.70;99.90
15184;DHT22;7693;49.266;7.104;2023-09-30T22:13:20;12.80;99.90
15184;DHT22;7693;49.266;7.104;2023-09-30T22:15:45;12.70;99.90
15184;DHT22;7693;49.266;7.104;2023-09-30T22:18:12;12.70;99.90
15184;DHT22;7693;49.266;7.104;2023-09-30T22:20:38;12.70;99.90
15184;DHT22;7693;49.266;7.104;2023-09-30T22:23:07;12.60;99.90
15184;DHT22;7693;49.266;7.104;2023-09-30T22:25:33;12.60;99.90
15184;DHT22;7693;49.266;7.104;2023-09-30T22:28:02;12.60;99.90
15184;DHT22;7693;49.266;7.104;2023-09-30T22:30:28;12.60;99.90
15184;DHT22;7693;49.266;7.104;2023-09-30T22:32:54;12.60;99.90
15184;DHT22;7693;49.266;7.104;2023-09-30T22:35:19;12.60;99.90
